Time;durP1;ratioP1;P1;durP2;ratioP2;P2;SDS_P1;SDS_P2;PMS_P1;PMS_P2;Temp;Humidity;BMP_temperature;BMP_pressure;BME280_temperature;BME280_humidity;BME280_pressure;Samples;Min_cycle;Max_cycle;Signal;HPM_P1;HPM_P2
2022/12/26 00:01:56;;;;;;;34.90;13.98;;;8.50;99.90;;;;;;5013845;28;20052;-80
2022/12/26 00:04:22;;;;;;;30.83;13.00;;;8.70;99.90;;;;;;4998080;28;20108;-80
2022/12/26 00:06:48;;;;;;;31.00;13.25;;;8.50;99.90;;;;;;5013753;28;20437;-80
2022/12/26 00:09:14;;;;;;;33.88;13.85;;;9.10;99.90;;;;;;5031143;28;20461;-80
2022/12/26 00:11:40;;;;;;;33.47;13.52;;;8.50;99.90;;;;;;5029776;28;20045;-80
2022/12/26 00:14:09;;;;;;;31.30;12.45;;;8.60;99.90;;;;;;5030733;28;20045;-82
2022/12/26 00:16:38;;;;;;;29.13;13.30;;;8.60;99.90;;;;;;5030208;28;20500;-80
2022/12/26 00:19:04;;;;;;;34.85;13.43;;;8.80;99.90;;;;;;5048054;28;20055;-80
2022/12/26 00:21:30;;;;;;;32.45;13.32;;;8.50;99.90;;;;;;5030150;28;20049;-80
2022/12/26 00:23:57;;;;;;;33.95;14.07;;;8.50;99.90;;;;;;5013114;28;20417;-79
2022/12/26 00:26:24;;;;;;;31.13;13.55;;;8.60;99.90;;;;;;5014619;28;20557;-80
2022/12/26 00:28:53;;;;;;;36.95;14.60;;;8.60;99.90;;;;;;5029525;28;20500;-80
2022/12/26 00:31:25;;;;;;;38.38;14.48;;;8.60;99.90;;;;;;5014239;28;20037;-80
2022/12/26 00:33:51;;;;;;;36.30;14.35;;;8.50;99.90;;;;;;5030184;28;20103;-80
2022/12/26 00:36:29;;;;;;;33.13;14.10;;;8.70;99.90;;;;;;4997516;28;20056;-80
2022/12/26 00:38:56;;;;;;;37.22;14.18;;;8.50;99.90;;;;;;5014031;28;20060;-80
2022/12/26 00:41:22;;;;;;;43.70;15.73;;;8.60;99.90;;;;;;5012703;28;20504;-80
2022/12/26 00:43:48;;;;;;;41.70;13.90;;;8.60;99.90;;;;;;5030431;28;20049;-81
2022/12/26 00:46:14;;;;;;;39.40;14.05;;;8.60;99.90;;;;;;5029404;28;20048;-80
2022/12/26 00:48:40;;;;;;;42.28;14.55;;;8.60;99.90;;;;;;5013391;28;20045;-80
2022/12/26 00:51:06;;;;;;;41.33;14.70;;;8.90;99.90;;;;;;4981243;28;20497;-80
2022/12/26 00:53:33;;;;;;;39.25;14.55;;;8.60;99.90;;;;;;5025947;28;20226;-80
2022/12/26 00:55:58;;;;;;;34.45;13.10;;;8.60;99.90;;;;;;4994095;28;20508;-80
2022/12/26 00:58:25;;;;;;;38.92;12.93;;;9.00;99.90;;;;;;5009849;28;20054;-80
2022/12/26 01:00:51;;;;;;;38.10;13.82;;;8.60;99.90;;;;;;5011027;28;20155;-81
2022/12/26 01:03:17;;;;;;;40.83;13.82;;;8.60;99.90;;;;;;5009975;28;20369;-80
2022/12/26 01:05:46;;;;;;;37.47;14.10;;;8.60;99.90;;;;;;5027000;28;20045;-80
2022/12/26 01:08:12;;;;;;;41.63;15.32;;;8.60;99.90;;;;;;5010115;28;20045;-81
2022/12/26 01:10:42;;;;;;;39.00;15.07;;;8.90;99.90;;;;;;4993518;28;20471;-82
2022/12/26 01:13:08;;;;;;;43.85;15.18;;;8.60;99.90;;;;;;5010454;28;20469;-82
2022/12/26 01:15:33;;;;;;;39.03;14.93;;;8.60;99.90;;;;;;4993144;28;20085;-81
2022/12/26 01:18:02;;;;;;;43.53;14.50;;;8.60;99.90;;;;;;4994693;28;20048;-81
2022/12/26 01:20:29;;;;;;;40.90;15.70;;;9.40;99.90;;;;;;5010236;28;20444;-80
2022/12/26 01:22:55;;;;;;;38.67;14.80;;;8.60;99.90;;;;;;5010250;28;20128;-80
2022/12/26 01:25:21;;;;;;;42.22;15.50;;;8.60;99.90;;;;;;4993621;28;20461;-81
2022/12/26 01:27:47;;;;;;;50.90;16.05;;;8.60;99.90;;;;;;5027640;28;20129;-81
2022/12/26 01:30:13;;;;;;;49.30;15.35;;;8.60;99.90;;;;;;5026843;28;20137;-81
2022/12/26 01:32:39;;;;;;;53.38;16.27;;;8.60;99.90;;;;;;5009498;28;20050;-81
2022/12/26 01:35:05;;;;;;;45.00;15.57;;;7.70;99.90;;;;;;5028217;28;20054;-80
2022/12/26 01:37:31;;;;;;;48.17;15.73;;;8.60;99.90;;;;;;5025796;28;20045;-80
2022/12/26 01:39:56;;;;;;;47.42;15.15;;;8.90;99.90;;;;;;5026385;28;20041;-80
2022/12/26 01:42:24;;;;;;;42.80;14.82;;;8.60;99.90;;;;;;5027668;28;20124;-81
2022/12/26 01:45:23;;;;;;;43.15;16.00;;;8.60;99.90;;;;;;5027755;28;20050;-80
2022/12/26 01:48:19;;;;;;;47.35;15.25;;;8.60;99.90;;;;;;5026673;28;20045;-81
2022/12/26 01:50:59;;;;;;;41.55;13.77;;;8.60;99.90;;;;;;5026752;28;20096;-81
2022/12/26 01:53:34;;;;;;;43.20;14.63;;;8.60;99.90;;;;;;5013311;28;20056;-80
2022/12/26 01:56:31;;;;;;;41.08;13.73;;;9.30;99.90;;;;;;5030522;28;20049;-81
2022/12/26 01:59:10;;;;;;;40.28;14.10;;;8.60;99.90;;;;;;5012963;28;20137;-82
2022/12/26 02:01:40;;;;;;;42.92;14.77;;;8.90;99.90;;;;;;5030471;28;20049;-83
2022/12/26 02:06:54;;;;;;;40.47;13.82;;;8.60;99.90;;;;;;5030283;28;20053;-82
2022/12/26 02:09:21;;;;;;;40.13;12.57;;;8.60;99.90;;;;;;5029822;28;20045;-82
2022/12/26 02:12:05;;;;;;;42.53;13.93;;;8.60;99.90;;;;;;5012584;28;20092;-82
2022/12/26 02:14:33;;;;;;;34.83;13.05;;;8.60;99.90;;;;;;5029662;28;20433;-83
2022/12/26 02:16:58;;;;;;;42.35;14.23;;;8.60;99.90;;;;;;5013238;28;20424;-83
2022/12/26 02:19:55;;;;;;;39.00;12.90;;;8.60;99.90;;;;;;5012192;28;20038;-83
2022/12/26 02:22:26;;;;;;;33.75;11.95;;;8.60;99.90;;;;;;5029700;28;20045;-83
2022/12/26 02:24:54;;;;;;;31.15;11.85;;;8.60;99.90;;;;;;5028674;28;20104;-83
2022/12/26 02:27:49;;;;;;;29.40;11.93;;;8.90;99.90;;;;;;5029224;28;20042;-83
2022/12/26 02:30:48;;;;;;;33.80;11.70;;;8.60;99.90;;;;;;5013045;28;20053;-83
2022/12/26 02:33:26;;;;;;;30.50;10.88;;;8.60;99.90;;;;;;5028176;28;20115;-82
2022/12/26 02:36:11;;;;;;;30.30;11.00;;;8.60;99.90;;;;;;5028787;28;20049;-82
2022/12/26 02:38:51;;;;;;;30.63;11.85;;;8.60;99.90;;;;;;5029184;28;20061;-83
2022/12/26 02:41:23;;;;;;;29.13;11.13;;;8.60;99.90;;;;;;5027958;28;20046;-82
2022/12/26 02:47:32;;;;;;;23.30;10.57;;;8.60;99.90;;;;;;5028964;28;20056;-83
2022/12/26 03:13:18;;;;;;;26.20;11.52;;;8.70;99.90;;;;;;5028650;28;20057;-83
2022/12/26 03:18:48;;;;;;;23.40;11.90;;;8.70;99.90;;;;;;5028146;28;20049;-82
2022/12/26 03:21:16;;;;;;;24.95;12.45;;;8.70;99.90;;;;;;5028090;28;20045;-82
2022/12/26 03:23:45;;;;;;;25.38;12.40;;;8.70;99.90;;;;;;5028014;28;20053;-82
2022/12/26 03:26:39;;;;;;;21.55;11.73;;;8.70;99.90;;;;;;5012673;28;20049;-82
2022/12/26 03:31:54;;;;;;;24.30;14.02;;;8.70;99.90;;;;;;5028002;28;20049;-81
2022/12/26 03:34:20;;;;;;;26.75;13.93;;;8.80;99.90;;;;;;5028212;28;20053;-81
2022/12/26 03:36:53;;;;;;;29.23;14.50;;;8.70;99.90;;;;;;5027453;28;20030;-81
2022/12/26 04:20:23;;;;;;;29.90;16.70;;;9.00;99.90;;;;;;5026277;28;20056;-81
2022/12/26 04:46:14;;;;;;;34.67;17.00;;;9.00;99.90;;;;;;5026011;28;20042;-81
2022/12/26 04:51:28;;;;;;;30.70;16.58;;;9.00;99.90;;;;;;5027877;28;20483;-81
2022/12/26 04:53:53;;;;;;;31.70;16.63;;;9.00;99.90;;;;;;5009671;28;20053;-81
2022/12/26 04:56:19;;;;;;;26.90;15.02;;;9.70;99.90;;;;;;4994946;28;20049;-81
2022/12/26 04:58:45;;;;;;;32.40;16.77;;;9.40;99.90;;;;;;5026408;28;20404;-81
2022/12/26 05:09:33;;;;;;;31.92;17.08;;;9.00;99.90;;;;;;5027268;28;20137;-81
2022/12/26 05:11:59;;;;;;;33.15;16.98;;;9.00;99.90;;;;;;5026363;28;20052;-81
2022/12/26 05:14:25;;;;;;;32.15;17.48;;;9.00;99.90;;;;;;5010489;28;20087;-81
2022/12/26 05:30:45;;;;;;;28.52;16.92;;;9.50;99.90;;;;;;5031291;28;20041;-82
2022/12/26 05:35:55;;;;;;;29.15;17.20;;;9.10;99.90;;;;;;5030245;28;20042;-82
2022/12/26 05:38:20;;;;;;;25.92;16.42;;;9.10;99.90;;;;;;5013691;28;20037;-82
2022/12/26 05:40:46;;;;;;;31.33;16.60;;;9.00;99.90;;;;;;5029928;28;20075;-81
2022/12/26 05:43:12;;;;;;;24.02;15.52;;;9.00;99.90;;;;;;5014053;28;20684;-82
2022/12/26 05:45:37;;;;;;;24.20;15.70;;;9.00;99.90;;;;;;4996992;28;20052;-81
2022/12/26 05:48:03;;;;;;;24.50;15.15;;;9.00;99.90;;;;;;5014305;28;20048;-82
2022/12/26 05:50:29;;;;;;;25.77;16.45;;;9.00;99.90;;;;;;5029495;28;20042;-82
2022/12/26 05:53:01;;;;;;;23.58;16.17;;;9.00;99.90;;;;;;5013927;28;20042;-82
2022/12/26 05:55:27;;;;;;;25.30;17.17;;;9.30;99.90;;;;;;5014703;28;20125;-82
2022/12/26 05:57:53;;;;;;;26.13;16.15;;;9.00;99.90;;;;;;5030930;28;20607;-82
2022/12/26 06:00:18;;;;;;;25.77;16.63;;;9.00;99.90;;;;;;5036012;28;20496;-82
2022/12/26 06:02:44;;;;;;;27.48;16.38;;;8.90;99.90;;;;;;5017877;28;20057;-82
2022/12/26 06:05:10;;;;;;;27.70;16.63;;;9.40;99.90;;;;;;5033660;28;20049;-81
2022/12/26 06:07:36;;;;;;;25.27;16.35;;;9.60;99.90;;;;;;5014110;28;20069;-82
2022/12/26 06:10:02;;;;;;;25.35;16.20;;;8.90;99.90;;;;;;5014301;28;20562;-81
2022/12/26 06:12:27;;;;;;;25.48;16.60;;;8.90;99.90;;;;;;5032330;28;20041;-81
2022/12/26 06:14:54;;;;;;;27.58;17.60;;;8.90;99.90;;;;;;5029602;28;20052;-82
2022/12/26 06:17:19;;;;;;;26.67;17.42;;;9.40;99.90;;;;;;5030447;28;20041;-81
2022/12/26 06:19:45;;;;;;;25.58;17.38;;;8.90;99.90;;;;;;5029729;28;20048;-81
2022/12/26 06:22:11;;;;;;;21.92;16.05;;;8.90;99.90;;;;;;5029809;28;20058;-82
2022/12/26 06:24:36;;;;;;;22.67;16.50;;;9.30;99.90;;;;;;5012532;28;20060;-81
2022/12/26 06:27:02;;;;;;;25.60;16.77;;;8.90;99.90;;;;;;5029578;28;20526;-81
2022/12/26 06:29:28;;;;;;;24.23;16.10;;;8.90;99.90;;;;;;5012700;28;20052;-82
2022/12/26 06:31:54;;;;;;;23.83;16.63;;;8.90;99.90;;;;;;5029185;28;20400;-83
2022/12/26 06:34:20;;;;;;;25.23;15.10;;;8.90;99.90;;;;;;5013140;28;20049;-82
2022/12/26 06:36:45;;;;;;;21.30;15.10;;;8.90;99.90;;;;;;5028056;28;20081;-81
2022/12/26 06:39:11;;;;;;;24.88;16.13;;;8.90;99.90;;;;;;5013618;28;20121;-80
2022/12/26 06:41:37;;;;;;;23.67;16.27;;;9.80;99.90;;;;;;5028134;28;20075;-82
2022/12/26 06:44:03;;;;;;;27.77;16.25;;;8.90;99.90;;;;;;5012832;28;20056;-81
2022/12/26 06:46:28;;;;;;;26.20;16.33;;;8.90;99.90;;;;;;5028449;28;20072;-82
2022/12/26 06:48:54;;;;;;;23.90;14.48;;;9.00;99.90;;;;;;5028447;28;20133;-80
2022/12/26 06:51:25;;;;;;;25.13;15.82;;;9.50;99.90;;;;;;5028630;28;20057;-82
2022/12/26 06:53:52;;;;;;;24.75;14.50;;;9.20;99.90;;;;;;5046585;28;20618;-82
2022/12/26 06:56:21;;;;;;;22.38;13.70;;;9.00;99.90;;;;;;5015900;28;20045;-82
2022/12/26 06:58:47;;;;;;;22.65;13.82;;;9.00;99.90;;;;;;5031215;28;20496;-81
2022/12/26 07:01:16;;;;;;;16.92;12.98;;;9.00;99.90;;;;;;5032488;28;20055;-81
2022/12/26 07:03:43;;;;;;;21.40;12.93;;;9.10;99.90;;;;;;5049676;28;20056;-82
2022/12/26 07:06:20;;;;;;;23.88;13.10;;;9.00;99.90;;;;;;5031553;28;20045;-81
2022/12/26 07:08:46;;;;;;;19.15;12.25;;;9.00;99.90;;;;;;5032060;28;20575;-80
2022/12/26 07:11:21;;;;;;;15.68;10.85;;;9.10;99.90;;;;;;5049507;28;20112;-80
2022/12/26 07:13:46;;;;;;;18.25;11.35;;;9.50;99.90;;;;;;5015633;28;20531;-81
2022/12/26 07:16:13;;;;;;;20.40;12.50;;;9.10;99.90;;;;;;4998176;28;20053;-80
2022/12/26 07:18:38;;;;;;;17.33;11.27;;;9.10;99.90;;;;;;5031936;28;20047;-81
2022/12/26 07:21:10;;;;;;;21.58;11.65;;;9.20;99.90;;;;;;5014867;28;20048;-81
2022/12/26 07:23:36;;;;;;;20.30;11.57;;;9.10;99.90;;;;;;5031382;28;20412;-81
2022/12/26 07:26:01;;;;;;;21.48;10.80;;;9.10;99.90;;;;;;4998991;28;20045;-80
2022/12/26 07:28:28;;;;;;;15.00;9.88;;;9.10;99.90;;;;;;5030917;28;20472;-81
2022/12/26 07:30:56;;;;;;;18.63;12.15;;;9.10;99.90;;;;;;5016286;28;20097;-81
2022/12/26 07:33:22;;;;;;;15.70;11.48;;;9.10;99.90;;;;;;5015289;28;20065;-81
2022/12/26 07:35:48;;;;;;;16.63;9.90;;;9.10;99.90;;;;;;5031429;28;20098;-81
2022/12/26 07:38:14;;;;;;;12.63;8.80;;;9.20;99.90;;;;;;5031447;28;20053;-81
2022/12/26 07:40:40;;;;;;;21.10;10.00;;;9.10;99.90;;;;;;5014668;28;20044;-80
2022/12/26 07:43:06;;;;;;;11.88;8.30;;;9.20;99.90;;;;;;5031680;28;20506;-82
2022/12/26 07:45:32;;;;;;;13.57;8.02;;;9.10;99.90;;;;;;5030294;28;20098;-81
2022/12/26 07:47:58;;;;;;;16.50;7.82;;;9.20;99.90;;;;;;5014671;28;20041;-79
2022/12/26 07:50:25;;;;;;;13.43;8.15;;;9.20;99.90;;;;;;5047871;28;20128;-79
2022/12/26 07:52:51;;;;;;;13.32;8.10;;;9.20;99.90;;;;;;5048671;28;20172;-80
2022/12/26 07:55:17;;;;;;;11.48;6.82;;;9.10;99.90;;;;;;5030417;28;20551;-85
2022/12/26 07:57:42;;;;;;;14.13;7.28;;;9.10;99.90;;;;;;5048678;28;20444;-82
2022/12/26 08:00:10;;;;;;;14.60;7.80;;;9.10;99.90;;;;;;5014502;28;20045;-82
2022/12/26 08:02:36;;;;;;;18.63;7.45;;;9.10;99.90;;;;;;5030205;28;20508;-79
2022/12/26 08:05:01;;;;;;;12.07;7.47;;;9.90;99.90;;;;;;5031111;28;20087;-83
2022/12/26 08:07:27;;;;;;;14.55;7.45;;;9.10;99.90;;;;;;5013202;28;20115;-78
2022/12/26 08:09:53;;;;;;;12.07;6.97;;;9.10;99.90;;;;;;5014604;28;20051;-78
2022/12/26 08:12:23;;;;;;;12.75;7.20;;;9.10;99.90;;;;;;5013671;28;20067;-79
2022/12/26 08:14:49;;;;;;;11.27;6.30;;;9.20;99.90;;;;;;5030460;28;20099;-79
2022/12/26 08:17:15;;;;;;;11.00;6.85;;;9.30;99.90;;;;;;5030428;28;20124;-78
2022/12/26 08:19:41;;;;;;;10.77;6.65;;;9.10;99.90;;;;;;5013261;28;20048;-78
2022/12/26 08:22:06;;;;;;;16.92;7.07;;;9.10;99.90;;;;;;5030636;28;20522;-79
2022/12/26 08:24:32;;;;;;;10.23;6.38;;;9.20;99.90;;;;;;5013565;28;20143;-77
2022/12/26 08:26:58;;;;;;;20.17;5.60;;;9.10;99.90;;;;;;5030434;28;20079;-78
2022/12/26 08:29:24;;;;;;;14.32;6.20;;;9.20;99.90;;;;;;4997384;28;20041;-79
2022/12/26 08:31:50;;;;;;;14.85;6.55;;;9.20;99.90;;;;;;4997515;28;20464;-79
2022/12/26 08:34:15;;;;;;;14.65;6.20;;;9.20;99.90;;;;;;5013867;28;20496;-79
2022/12/26 08:36:41;;;;;;;7.45;5.13;;;9.20;99.90;;;;;;5047489;28;20041;-79
2022/12/26 08:39:07;;;;;;;13.55;6.05;;;9.20;99.90;;;;;;5030585;28;20129;-79
2022/12/26 08:41:32;;;;;;;11.30;5.57;;;9.60;99.90;;;;;;4980463;28;20044;-79
2022/12/26 08:43:58;;;;;;;9.70;5.70;;;9.30;99.90;;;;;;5030537;28;20235;-79
2022/12/26 08:46:27;;;;;;;11.23;5.40;;;9.30;99.90;;;;;;5013825;28;20107;-79
2022/12/26 08:48:53;;;;;;;12.15;5.50;;;9.50;99.90;;;;;;4997205;28;20426;-79
2022/12/26 08:51:21;;;;;;;8.82;4.75;;;9.30;99.90;;;;;;5030334;28;20041;-79
2022/12/26 08:53:48;;;;;;;9.15;5.15;;;9.30;99.90;;;;;;5029565;28;20049;-78
2022/12/26 08:56:16;;;;;;;10.95;5.07;;;9.30;99.90;;;;;;5048932;28;20091;-77
2022/12/26 08:58:43;;;;;;;12.88;4.63;;;9.50;99.90;;;;;;5047390;28;20049;-77
2022/12/26 09:01:14;;;;;;;6.65;4.80;;;9.30;99.90;;;;;;5051516;28;20052;-78
2022/12/26 09:03:40;;;;;;;12.88;4.97;;;9.30;99.90;;;;;;5051960;28;20119;-78
2022/12/26 09:06:06;;;;;;;23.85;6.05;;;9.30;99.90;;;;;;5034106;28;20399;-78
2022/12/26 09:08:33;;;;;;;7.95;4.80;;;9.30;99.90;;;;;;5017567;28;20053;-78
2022/12/26 09:11:26;;;;;;;12.13;5.03;;;9.30;99.90;;;;;;5033589;28;20040;-79
2022/12/26 09:13:55;;;;;;;15.45;5.43;;;9.30;99.90;;;;;;5049942;28;20502;-81
2022/12/26 09:16:28;;;;;;;13.48;5.10;;;9.20;99.90;;;;;;5051488;28;20492;-78
2022/12/26 09:18:56;;;;;;;5.70;3.43;;;9.30;99.90;;;;;;5052079;28;20114;-80
2022/12/26 09:21:21;;;;;;;10.77;5.25;;;9.20;99.90;;;;;;5052197;28;20087;-77
2022/12/26 09:23:47;;;;;;;10.23;4.90;;;9.20;99.90;;;;;;5016903;28;20045;-78
2022/12/26 09:26:16;;;;;;;12.93;5.20;;;9.20;99.90;;;;;;5052440;28;20044;-78
2022/12/26 09:28:44;;;;;;;13.48;4.63;;;9.20;99.90;;;;;;5051226;28;20053;-79
2022/12/26 09:31:12;;;;;;;7.97;4.18;;;9.20;99.90;;;;;;5034465;28;20473;-78
2022/12/26 09:33:38;;;;;;;6.68;3.95;;;9.20;99.90;;;;;;5051488;28;20033;-78
2022/12/26 09:36:15;;;;;;;8.15;4.20;;;9.20;99.90;;;;;;5051533;28;20064;-79
2022/12/26 09:38:42;;;;;;;7.22;4.13;;;9.20;99.90;;;;;;5033703;28;20045;-78
2022/12/26 09:41:20;;;;;;;8.68;4.00;;;9.20;99.90;;;;;;5032808;28;20064;-77
2022/12/26 09:44:24;;;;;;;5.05;3.03;;;9.20;99.90;;;;;;5033626;28;20044;-76
2022/12/26 09:47:05;;;;;;;13.05;2.90;;;9.20;99.90;;;;;;5033232;28;20052;-78
2022/12/26 09:49:52;;;;;;;10.50;2.45;;;9.20;99.90;;;;;;5015999;28;20056;-78
2022/12/26 09:52:22;;;;;;;25.48;2.53;;;9.30;99.90;;;;;;5016825;28;20048;-77
2022/12/26 09:54:59;;;;;;;17.38;3.58;;;9.30;99.90;;;;;;5033156;28;20464;-76
2022/12/26 09:57:41;;;;;;;13.85;2.42;;;9.20;99.90;;;;;;5032570;28;20085;-78
2022/12/26 10:00:19;;;;;;;13.30;2.15;;;9.20;99.90;;;;;;5051233;28;20044;-77
2022/12/26 10:02:52;;;;;;;15.65;2.55;;;9.10;99.90;;;;;;5015437;28;20044;-78
2022/12/26 10:05:24;;;;;;;10.90;2.58;;;9.00;99.90;;;;;;5033049;28;20496;-77
2022/12/26 10:07:58;;;;;;;16.70;2.85;;;8.90;99.90;;;;;;5050611;28;20049;-77
2022/12/26 10:10:36;;;;;;;15.57;1.77;;;8.80;99.90;;;;;;5050314;28;20052;-77
2022/12/26 10:13:23;;;;;;;19.02;2.25;;;8.70;99.90;;;;;;5050457;28;20049;-80
2022/12/26 10:15:57;;;;;;;11.68;1.80;;;8.60;99.90;;;;;;5032023;28;20057;-80
2022/12/26 10:18:59;;;;;;;19.38;1.67;;;8.50;99.90;;;;;;5033353;28;20065;-79
2022/12/26 10:21:50;;;;;;;14.50;2.00;;;8.40;99.90;;;;;;5032976;28;20051;-80
2022/12/26 10:24:25;;;;;;;10.23;1.60;;;8.30;99.90;;;;;;5031695;28;20045;-78
2022/12/26 10:27:16;;;;;;;10.85;2.42;;;8.30;99.90;;;;;;5032757;28;20049;-79
2022/12/26 10:29:49;;;;;;;18.73;1.02;;;8.20;99.90;;;;;;5024926;28;20145;-79
2022/12/26 10:32:18;;;;;;;15.82;1.30;;;8.20;99.90;;;;;;5031796;28;20041;-79
2022/12/26 10:34:46;;;;;;;13.07;1.83;;;8.10;99.90;;;;;;5032920;28;20045;-79
2022/12/26 10:37:37;;;;;;;10.48;1.17;;;8.10;99.90;;;;;;5014900;28;20355;-79
2022/12/26 10:40:26;;;;;;;12.98;1.67;;;8.10;99.90;;;;;;5032369;28;20110;-80
2022/12/26 10:42:54;;;;;;;14.13;1.27;;;8.10;99.90;;;;;;5032626;28;20052;-81
2022/12/26 10:45:35;;;;;;;9.65;1.23;;;8.10;99.90;;;;;;5032550;28;20092;-79
2022/12/26 10:48:01;;;;;;;18.55;2.08;;;8.00;99.90;;;;;;5033275;28;20056;-79
2022/12/26 10:50:30;;;;;;;13.05;1.60;;;8.00;99.90;;;;;;5015047;28;20115;-80
2022/12/26 10:52:58;;;;;;;12.27;1.95;;;7.90;99.90;;;;;;5032060;28;20053;-79
2022/12/26 10:55:31;;;;;;;2.75;0.82;;;7.80;99.90;;;;;;5049997;28;20049;-80
2022/12/26 10:58:03;;;;;;;10.75;1.05;;;8.30;99.90;;;;;;5031496;28;20084;-80
2022/12/26 11:00:28;;;;;;;7.00;1.00;;;7.70;99.90;;;;;;5032635;28;20124;-81
2022/12/26 11:03:01;;;;;;;16.13;1.65;;;7.60;99.90;;;;;;5014933;28;20128;-82
2022/12/26 11:05:27;;;;;;;7.63;0.88;;;7.60;99.90;;;;;;5015837;28;20083;-81
2022/12/26 11:08:13;;;;;;;8.57;1.25;;;7.50;99.90;;;;;;5031256;28;20567;-81
2022/12/26 11:10:45;;;;;;;8.45;1.40;;;7.60;99.90;;;;;;5031529;28;20457;-80
2022/12/26 11:13:19;;;;;;;15.98;1.20;;;7.40;99.90;;;;;;5032322;28;20052;-80
2022/12/26 11:15:51;;;;;;;10.15;1.17;;;7.30;99.90;;;;;;5031182;28;20066;-80
2022/12/26 11:18:29;;;;;;;10.50;1.83;;;7.20;99.90;;;;;;5031923;28;20426;-80
2022/12/26 11:21:09;;;;;;;11.20;0.65;;;7.20;99.90;;;;;;5031495;28;20462;-80
2022/12/26 11:23:35;;;;;;;12.88;1.17;;;7.20;99.90;;;;;;5000415;28;20830;-80
2022/12/26 11:26:01;;;;;;;13.57;1.33;;;7.20;99.90;;;;;;5015620;28;20084;-80
2022/12/26 11:28:31;;;;;;;9.68;1.33;;;7.20;99.90;;;;;;5013893;28;20507;-80
2022/12/26 11:30:59;;;;;;;11.13;1.33;;;7.30;99.90;;;;;;5015644;28;20055;-81
2022/12/26 11:33:32;;;;;;;7.00;0.85;;;8.20;99.90;;;;;;5014958;28;20491;-81
2022/12/26 11:36:01;;;;;;;;;;;7.30;99.90;;;;;;5015980;28;20040;-80
2022/12/26 11:38:33;;;;;;;15.60;2.00;;;7.30;99.90;;;;;;5015646;28;19923;-79
2022/12/26 11:43:56;;;;;;;8.30;1.10;;;7.30;99.90;;;;;;5031853;28;20123;-80
2022/12/26 11:46:32;;;;;;;10.40;0.98;;;7.50;99.90;;;;;;5014391;28;20045;-80
2022/12/26 11:48:58;;;;;;;11.82;0.93;;;7.40;99.90;;;;;;5014558;28;20471;-80
2022/12/26 11:51:53;;;;;;;13.27;1.55;;;7.30;99.90;;;;;;4998474;28;20041;-81
2022/12/26 11:54:24;;;;;;;16.80;1.95;;;7.30;99.90;;;;;;5016366;28;20059;-80
2022/12/26 11:57:01;;;;;;;9.00;1.42;;;7.20;99.90;;;;;;5029752;28;20136;-80
2022/12/26 11:59:28;;;;;;;14.25;1.52;;;7.20;99.90;;;;;;5029529;28;20043;-80
2022/12/26 12:02:15;;;;;;;15.65;2.22;;;7.30;99.90;;;;;;5029694;28;20448;-80
2022/12/26 12:04:41;;;;;;;9.90;1.42;;;7.20;99.90;;;;;;5029993;28;20099;-79
2022/12/26 12:07:29;;;;;;;16.42;1.60;;;7.20;99.90;;;;;;5028988;28;20037;-80
2022/12/26 12:10:02;;;;;;;13.93;1.23;;;7.20;99.90;;;;;;5029527;28;20099;-84
2022/12/26 12:12:54;;;;;;;11.50;1.25;;;7.20;99.90;;;;;;5013103;28;20053;-84
2022/12/26 12:15:30;;;;;;;12.73;1.50;;;7.20;99.90;;;;;;5028811;28;20127;-83
2022/12/26 12:18:21;;;;;;;14.00;1.65;;;7.40;99.90;;;;;;5030290;28;20044;-83
2022/12/26 12:21:29;;;;;;;12.10;1.67;;;7.30;99.90;;;;;;5029679;28;20063;-81
2022/12/26 12:24:22;;;;;;;9.50;1.73;;;7.30;99.90;;;;;;5029337;28;20147;-82
2022/12/26 12:26:57;;;;;;;10.90;1.50;;;7.30;99.90;;;;;;5013698;28;20323;-84
2022/12/26 12:29:52;;;;;;;13.90;1.52;;;7.30;99.90;;;;;;5029626;28;20049;-83
2022/12/26 12:32:39;;;;;;;9.55;1.85;;;7.30;99.90;;;;;;5013952;28;20502;-83
2022/12/26 12:35:33;;;;;;;12.13;1.55;;;8.50;99.90;;;;;;5029549;28;20118;-81
2022/12/26 12:37:59;;;;;;;;;;;7.30;99.90;;;;;;5031219;28;20182;-83
2022/12/26 12:40:59;;;;;;;19.70;1.85;;;7.20;99.90;;;;;;5031277;28;20347;-86
2022/12/26 12:43:49;;;;;;;12.10;1.98;;;7.30;99.90;;;;;;5031319;28;20051;-84
2022/12/26 12:46:21;;;;;;;9.50;1.70;;;7.30;99.90;;;;;;5048445;28;20053;-85
2022/12/26 12:49:26;;;;;;;15.10;2.25;;;7.30;99.90;;;;;;5048946;28;20051;-83
2022/12/26 12:52:25;;;;;;;10.73;1.08;;;7.40;99.90;;;;;;4970599;28;20046;-83
2022/12/26 12:55:17;;;;;;;19.42;3.28;;;7.30;99.90;;;;;;4969940;28;20097;-83
2022/12/26 12:58:01;;;;;;;15.18;2.13;;;7.30;99.90;;;;;;5041390;28;20053;-83
2022/12/26 13:00:53;;;;;;;18.15;2.05;;;7.30;99.90;;;;;;5031299;28;20045;-81
2022/12/26 13:03:22;;;;;;;17.30;4.07;;;7.30;99.90;;;;;;5013748;28;20053;-84
2022/12/26 13:06:09;;;;;;;13.18;1.73;;;7.40;99.90;;;;;;5015867;28;20104;-83
2022/12/26 13:08:44;;;;;;;17.70;2.20;;;7.40;99.90;;;;;;5030828;28;20088;-84
2022/12/26 13:11:23;;;;;;;20.98;1.60;;;7.40;99.90;;;;;;5030342;28;20040;-84
2022/12/26 13:13:58;;;;;;;13.98;2.08;;;7.40;99.90;;;;;;5029697;28;20064;-83
2022/12/26 13:16:29;;;;;;;12.15;2.53;;;7.30;99.90;;;;;;5014383;28;20037;-84
2022/12/26 13:18:59;;;;;;;18.27;3.60;;;7.30;99.90;;;;;;5047735;28;20120;-81
2022/12/26 13:21:26;;;;;;;16.50;2.35;;;7.30;99.90;;;;;;5047194;28;20056;-81
2022/12/26 13:26:57;;;;;;;20.95;2.17;;;7.30;99.90;;;;;;5029204;28;20412;-83
2022/12/26 13:29:40;;;;;;;11.15;2.03;;;7.40;99.90;;;;;;5028964;28;20045;-84
2022/12/26 13:32:26;;;;;;;8.73;1.80;;;7.40;99.90;;;;;;5030034;28;20131;-84
2022/12/26 13:34:54;;;;;;;16.67;2.20;;;7.40;99.90;;;;;;5047825;28;20081;-80
2022/12/26 13:37:38;;;;;;;19.55;1.65;;;7.50;99.90;;;;;;5028184;28;20051;-81
2022/12/26 13:40:15;;;;;;;21.45;2.15;;;7.60;99.90;;;;;;5028402;28;20170;-80
2022/12/26 13:46:37;;;;;;;21.83;1.60;;;7.70;99.90;;;;;;4968186;28;20061;-81
2022/12/26 13:49:03;;;;;;;20.58;2.15;;;7.70;99.90;;;;;;4972655;28;20054;-83
2022/12/26 13:51:50;;;;;;;11.25;1.95;;;7.60;99.90;;;;;;5022370;28;20049;-82
2022/12/26 13:54:17;;;;;;;15.18;2.17;;;7.50;99.90;;;;;;5015497;28;20136;-81
2022/12/26 13:56:42;;;;;;;11.13;1.60;;;7.40;99.90;;;;;;5050400;28;20076;-81
2022/12/26 13:59:35;;;;;;;18.35;2.60;;;7.20;99.90;;;;;;5015299;28;20415;-82
2022/12/26 14:02:45;;;;;;;9.27;2.05;;;7.10;99.90;;;;;;5015270;28;20048;-81
2022/12/26 14:05:25;;;;;;;8.00;1.75;;;7.00;99.90;;;;;;5049870;28;20052;-81
2022/12/26 14:08:15;;;;;;;21.27;2.15;;;7.00;99.90;;;;;;5031519;28;20037;-81
2022/12/26 14:10:58;;;;;;;17.90;1.80;;;6.90;99.90;;;;;;5032934;28;20056;-81
2022/12/26 14:13:42;;;;;;;23.02;2.15;;;6.90;99.90;;;;;;5050898;28;20044;-80
2022/12/26 14:16:26;;;;;;;17.55;2.03;;;7.50;99.90;;;;;;5050070;28;20053;-81
2022/12/26 14:18:52;;;;;;;16.30;1.67;;;6.90;99.90;;;;;;5031639;28;20052;-82
2022/12/26 14:21:38;;;;;;;13.85;2.40;;;6.90;99.90;;;;;;5050029;28;20049;-81
2022/12/26 14:24:22;;;;;;;21.98;1.83;;;6.90;99.90;;;;;;5014711;28;20110;-81
2022/12/26 14:27:01;;;;;;;13.73;1.90;;;6.80;99.90;;;;;;5032169;28;20056;-81
2022/12/26 14:30:12;;;;;;;16.13;1.98;;;6.80;99.90;;;;;;5031236;28;20550;-82
2022/12/26 14:32:52;;;;;;;11.07;2.05;;;6.80;99.90;;;;;;5033428;28;20059;-81
2022/12/26 14:35:33;;;;;;;21.73;2.10;;;6.70;99.90;;;;;;5049513;28;20045;-82
2022/12/26 14:38:42;;;;;;;14.80;1.90;;;6.70;99.90;;;;;;5049333;28;20045;-81
2022/12/26 14:43:09;;;;;;;13.18;2.38;;;6.60;99.90;;;;;;5031356;28;20147;-81
2022/12/26 14:44:18;;;;;;;12.38;1.80;;;6.60;99.90;;;;;;5031106;28;20052;-80
2022/12/26 14:46:47;;;;;;;16.77;4.28;;;6.50;99.90;;;;;;5004249;28;20060;-81
2022/12/26 14:49:31;;;;;;;16.75;2.38;;;6.40;99.90;;;;;;5030893;28;20118;-82
2022/12/26 14:52:22;;;;;;;20.08;2.17;;;6.40;99.90;;;;;;5031626;28;20033;-81
2022/12/26 14:54:48;;;;;;;18.80;2.47;;;6.30;99.90;;;;;;5030830;28;20056;-84
2022/12/26 14:57:48;;;;;;;13.43;1.90;;;6.30;99.90;;;;;;5030984;28;20099;-83
2022/12/26 15:00:20;;;;;;;8.75;1.48;;;6.30;99.90;;;;;;5030881;28;20531;-83
2022/12/26 15:02:57;;;;;;;24.98;4.55;;;6.20;99.90;;;;;;5048776;28;20388;-83
2022/12/26 15:05:27;;;;;;;17.08;2.90;;;6.30;99.90;;;;;;5030861;28;20045;-83
2022/12/26 15:08:29;;;;;;;19.42;3.08;;;6.20;99.90;;;;;;5030706;28;20059;-82
2022/12/26 15:11:32;;;;;;;12.93;1.65;;;6.20;99.90;;;;;;5030365;28;20045;-81
2022/12/26 15:14:18;;;;;;;15.77;2.22;;;6.10;99.90;;;;;;5016736;28;20084;-81
2022/12/26 15:16:46;;;;;;;14.75;2.63;;;6.10;99.90;;;;;;5033467;28;20048;-82
2022/12/26 15:19:39;;;;;;;12.52;2.22;;;6.00;99.90;;;;;;5032883;28;20086;-82
2022/12/26 15:22:37;;;;;;;14.32;2.88;;;6.00;99.90;;;;;;5031873;28;20049;-82
2022/12/26 15:25:30;;;;;;;24.88;2.55;;;6.00;99.90;;;;;;5030101;28;20400;-82
2022/12/26 15:28:05;;;;;;;20.60;2.53;;;6.70;99.90;;;;;;5048342;28;20145;-81
2022/12/26 15:31:04;;;;;;;15.88;1.30;;;5.90;99.90;;;;;;5030335;28;20059;-81
2022/12/26 15:34:05;;;;;;;6.97;1.83;;;5.80;99.90;;;;;;5048102;28;20095;-79